createdAt,value
2018-11-21T00:00:26.649Z,18.30
2018-11-21T00:03:07.034Z,17.87
2018-11-21T00:05:46.708Z,17.50
2018-11-21T00:08:27.093Z,17.23
2018-11-21T00:11:07.993Z,17.53
2018-11-21T00:13:48.097Z,16.93
2018-11-21T00:16:27.865Z,17.43
2018-11-21T00:19:08.419Z,17.53
2018-11-21T00:21:48.879Z,17.87
2018-11-21T00:24:29.144Z,16.83
2018-11-21T00:27:08.757Z,17.83
2018-11-21T00:29:48.373Z,17.97
2018-11-21T00:32:29.076Z,18.00
2018-11-21T00:35:09.953Z,16.80
2018-11-21T00:37:50.335Z,17.97
2018-11-21T00:40:30.225Z,17.60
2018-11-21T00:43:10.275Z,18.27
2018-11-21T00:45:50.835Z,17.33
2018-11-21T00:48:31.267Z,17.50
2018-11-21T00:51:12.279Z,17.63
2018-11-21T00:53:52.467Z,17.70
2018-11-21T00:56:31.989Z,16.50
2018-11-21T00:59:11.996Z,18.03
2018-11-21T01:01:51.578Z,17.00
2018-11-21T01:04:31.875Z,17.73
2018-11-21T01:07:12.207Z,17.00
2018-11-21T01:09:51.715Z,18.20
2018-11-21T01:12:31.777Z,18.27
2018-11-21T01:15:11.991Z,17.60
2018-11-21T01:17:51.809Z,18.00
2018-11-21T01:20:32.345Z,18.23
2018-11-21T01:23:12.081Z,18.10
2018-11-21T01:25:52.249Z,17.50
2018-11-21T01:28:33.485Z,18.43
2018-11-21T01:31:13.841Z,18.37
2018-11-21T01:33:53.319Z,17.47
2018-11-21T01:36:33.137Z,17.30
2018-11-21T01:39:13.507Z,18.03
2018-11-21T01:41:53.795Z,17.70
2018-11-21T01:44:33.229Z,17.47
2018-11-21T01:47:12.979Z,17.50
2018-11-21T01:49:52.861Z,17.53
2018-11-21T01:52:32.449Z,18.13
2018-11-21T01:55:12.173Z,17.97
2018-11-21T01:57:52.369Z,17.33
2018-11-21T02:00:32.331Z,17.83
2018-11-21T02:03:11.967Z,18.33
2018-11-21T02:05:54.463Z,18.20
2018-11-21T02:08:34.239Z,17.50
2018-11-21T02:11:13.819Z,17.87
2018-11-21T02:13:53.361Z,17.43
2018-11-21T02:16:33.067Z,18.07
2018-11-21T02:19:12.865Z,18.53
2018-11-21T02:21:52.509Z,17.30
2018-11-21T02:24:31.929Z,19.60
2018-11-21T02:27:11.754Z,18.20
2018-11-21T02:29:51.537Z,18.20
2018-11-21T02:32:31.790Z,18.10
2018-11-21T02:35:11.163Z,17.77
2018-11-21T02:37:50.774Z,18.37
2018-11-21T02:40:30.413Z,18.10
2018-11-21T02:43:11.723Z,18.23
2018-11-21T02:45:51.456Z,18.77
2018-11-21T02:48:31.256Z,18.00
2018-11-21T02:51:10.727Z,18.27
2018-11-21T02:53:50.472Z,18.40
2018-11-21T02:56:30.033Z,18.30
2018-11-21T02:59:10.271Z,18.93
2018-11-21T03:01:50.620Z,18.97
2018-11-21T03:04:30.081Z,18.90
2018-11-21T03:07:09.865Z,19.37
2018-11-21T03:09:49.549Z,19.63
2018-11-21T03:12:30.660Z,19.20
2018-11-21T03:15:10.144Z,18.50
2018-11-21T03:17:49.751Z,18.60
2018-11-21T03:20:30.131Z,19.60
2018-11-21T03:23:09.961Z,18.57
2018-11-21T03:25:50.203Z,19.40
2018-11-21T03:28:30.356Z,18.73
2018-11-21T03:31:10.505Z,18.20
2018-11-21T03:33:57.670Z,18.60
2018-11-21T03:42:41.666Z,18.43
2018-11-21T03:45:21.379Z,17.50
2018-11-21T03:48:01.137Z,19.00
2018-11-21T03:50:40.791Z,18.40
2018-11-21T03:53:20.893Z,18.73
2018-11-21T03:56:01.163Z,18.57
2018-11-21T03:58:40.786Z,18.90
2018-11-21T04:01:21.143Z,18.57
2018-11-21T04:04:00.641Z,18.47
2018-11-21T04:06:40.067Z,19.00
2018-11-21T04:09:22.397Z,19.30
2018-11-21T04:12:01.935Z,20.07
2018-11-21T04:14:41.729Z,19.93
2018-11-21T04:17:21.672Z,19.23
2018-11-21T04:20:00.718Z,18.53
2018-11-21T04:22:40.378Z,18.47
2018-11-21T04:25:20.907Z,18.00
2018-11-21T04:28:01.055Z,18.30
2018-11-21T04:30:40.727Z,18.40
2018-11-21T04:33:20.435Z,17.93
2018-11-21T04:36:00.049Z,18.20
2018-11-21T04:38:40.213Z,17.83
2018-11-21T04:41:19.978Z,18.53
2018-11-21T04:43:59.453Z,18.60
2018-11-21T04:46:39.277Z,18.60
2018-11-21T04:49:18.883Z,19.53
2018-11-21T04:51:58.620Z,18.87
2018-11-21T04:54:38.367Z,18.63
2018-11-21T04:57:18.943Z,18.40
2018-11-21T04:59:58.626Z,19.63
2018-11-21T05:02:41.973Z,18.77
2018-11-21T05:05:21.868Z,17.63
2018-11-21T05:08:01.683Z,19.23
2018-11-21T05:10:41.505Z,20.03
2018-11-21T05:13:21.333Z,19.07
2018-11-21T05:16:02.546Z,20.20
2018-11-21T05:18:42.740Z,18.90
2018-11-21T05:21:22.506Z,19.43
2018-11-21T05:24:02.024Z,19.57
2018-11-21T05:26:42.236Z,20.10
2018-11-21T05:29:22.075Z,20.20
2018-11-21T05:32:01.900Z,18.17
2018-11-21T05:34:42.363Z,18.10
2018-11-21T05:37:22.170Z,19.10
2018-11-21T05:40:02.634Z,18.47
2018-11-21T05:42:42.168Z,20.00
2018-11-21T05:45:21.689Z,16.83
2018-11-21T05:48:01.219Z,18.43
2018-11-21T05:50:42.563Z,19.20
2018-11-21T05:53:22.231Z,18.80
2018-11-21T05:56:01.859Z,19.00
2018-11-21T05:58:41.433Z,19.53
2018-11-21T06:01:21.347Z,19.23
2018-11-21T06:04:01.897Z,18.90
2018-11-21T06:06:41.645Z,18.20
2018-11-21T06:09:21.352Z,19.23
2018-11-21T06:12:04.352Z,18.90
2018-11-21T06:14:40.882Z,18.20
2018-11-21T06:17:08.292Z,17.93
2018-11-21T06:19:55.038Z,17.60
2018-11-21T06:22:34.654Z,18.40
2018-11-21T06:25:14.885Z,20.27
2018-11-21T06:27:54.573Z,18.70
2018-11-21T06:30:34.100Z,19.07
2018-11-21T06:33:13.583Z,18.73
2018-11-21T06:35:41.359Z,17.83
2018-11-21T06:38:28.163Z,16.90
2018-11-21T06:41:14.971Z,18.43
2018-11-21T06:43:54.631Z,19.50
2018-11-21T06:46:37.029Z,19.27
2018-11-21T06:49:17.275Z,19.40
2018-11-21T06:51:57.628Z,20.40
2018-11-21T06:54:38.105Z,18.37
2018-11-21T06:57:18.937Z,20.50
2018-11-21T06:59:58.679Z,19.10
2018-11-21T07:02:38.941Z,20.17
2018-11-21T07:05:19.007Z,18.30
2018-11-21T07:08:00.470Z,19.60
2018-11-21T07:10:40.277Z,17.53
2018-11-21T07:13:19.893Z,19.47
2018-11-21T07:15:59.521Z,19.00
2018-11-21T07:18:39.491Z,21.23
2018-11-21T07:21:19.054Z,19.43
2018-11-21T07:23:58.751Z,20.30
2018-11-21T07:26:38.434Z,18.73
2018-11-21T07:29:18.728Z,21.57
2018-11-21T07:31:58.363Z,21.00
2018-11-21T07:34:37.808Z,21.67
2018-11-21T07:37:18.562Z,22.10
2018-11-21T07:39:58.991Z,22.63
2018-11-21T07:42:38.482Z,21.63
2018-11-21T07:45:17.937Z,21.40
2018-11-21T07:47:58.179Z,21.10
2018-11-21T07:50:37.897Z,23.60
2018-11-21T07:53:18.351Z,25.50
2018-11-21T07:55:58.089Z,22.83
2018-11-21T07:58:38.135Z,22.10
2018-11-21T08:01:37.897Z,21.77
2018-11-21T08:04:37.849Z,21.50
2018-11-21T08:07:37.650Z,22.13
2018-11-21T08:10:29.812Z,20.60
2018-11-21T08:13:25.926Z,18.73
2018-11-21T08:16:24.941Z,21.37
2018-11-21T08:19:30.501Z,21.10
2018-11-21T08:22:30.186Z,20.10
2018-11-21T08:31:32.690Z,19.83
2018-11-21T08:34:19.472Z,19.20
2018-11-21T08:37:00.115Z,21.27
2018-11-21T08:39:40.215Z,21.43
2018-11-21T08:42:21.879Z,20.87
2018-11-21T08:45:02.016Z,20.40
2018-11-21T08:47:42.429Z,20.63
2018-11-21T08:50:22.995Z,20.80
2018-11-21T08:53:03.165Z,20.23
2018-11-21T08:55:43.459Z,21.57
2018-11-21T08:58:23.669Z,22.10
2018-11-21T09:01:04.109Z,22.40
2018-11-21T09:03:44.512Z,21.83
2018-11-21T09:06:24.266Z,20.60
2018-11-21T09:09:04.801Z,21.27
2018-11-21T09:11:45.170Z,21.70
2018-11-21T09:14:24.862Z,20.70
2018-11-21T09:17:04.542Z,22.07
2018-11-21T09:19:44.268Z,21.10
2018-11-21T09:22:24.155Z,20.87
2018-11-21T09:24:51.515Z,21.37
2018-11-21T09:27:39.189Z,21.03
2018-11-21T09:30:27.225Z,21.13
2018-11-21T09:33:08.671Z,21.40
2018-11-21T09:35:48.885Z,22.20
2018-11-21T09:38:29.838Z,23.87
2018-11-21T09:41:09.710Z,23.80
2018-11-21T09:43:37.780Z,23.00
2018-11-21T09:46:24.600Z,22.47
2018-11-21T09:49:04.745Z,22.67
2018-11-21T09:51:45.091Z,24.23
2018-11-21T09:54:24.626Z,26.33
2018-11-21T09:57:04.178Z,27.67
2018-11-21T09:59:53.330Z,27.37
2018-11-21T10:02:33.344Z,26.73
2018-11-21T10:05:13.212Z,25.20
2018-11-21T10:07:53.486Z,26.33
2018-11-21T10:10:34.005Z,25.07
2018-11-21T10:13:13.511Z,25.10
2018-11-21T10:15:53.177Z,23.67
2018-11-21T10:18:33.357Z,23.30
2018-11-21T10:21:23.988Z,23.23
2018-11-21T10:24:04.206Z,22.13
2018-11-21T10:26:44.340Z,22.93
2018-11-21T10:29:24.142Z,23.27
2018-11-21T10:32:03.970Z,22.93
2018-11-21T10:34:31.274Z,22.63
2018-11-21T10:37:18.102Z,23.17
2018-11-21T10:40:05.521Z,23.13
2018-11-21T10:42:32.824Z,23.67
2018-11-21T10:45:19.652Z,23.90
2018-11-21T10:48:06.858Z,23.43
2018-11-21T10:50:34.548Z,21.27
2018-11-21T10:53:21.587Z,22.43
2018-11-21T10:56:02.037Z,22.63
2018-11-21T10:58:43.263Z,22.23
2018-11-21T11:01:26.491Z,21.43
2018-11-21T11:04:10.922Z,22.47
2018-11-21T11:07:10.992Z,22.23
2018-11-21T11:10:14.401Z,22.77
2018-11-21T11:12:54.816Z,21.37
2018-11-21T11:15:55.059Z,22.30
2018-11-21T11:18:54.224Z,21.80
2018-11-21T11:21:57.790Z,21.53
2018-11-21T11:24:38.608Z,21.63
2018-11-21T11:30:11.256Z,23.43
2018-11-21T11:33:18.560Z,22.30
2018-11-21T11:36:18.414Z,23.07
2018-11-21T11:38:56.760Z,22.30
2018-11-21T11:42:03.087Z,22.07
2018-11-21T11:45:20.908Z,22.27
2018-11-21T11:48:19.960Z,21.67
2018-11-21T11:51:19.490Z,22.83
2018-11-21T11:54:09.663Z,22.30
2018-11-21T11:57:01.512Z,21.70
2018-11-21T12:00:00.950Z,21.57
2018-11-21T12:03:00.751Z,22.73
2018-11-21T12:06:00.262Z,21.40
2018-11-21T12:08:43.738Z,21.57
2018-11-21T12:11:43.145Z,22.23
2018-11-21T12:14:26.964Z,21.93
2018-11-21T12:17:26.549Z,20.87
2018-11-21T12:20:10.086Z,22.00
2018-11-21T12:25:40.062Z,21.60
2018-11-21T12:28:40.046Z,20.67
2018-11-21T12:31:40.038Z,21.53
2018-11-21T12:37:09.879Z,22.53
2018-11-21T12:40:09.127Z,21.30
2018-11-21T12:45:38.979Z,21.10
2018-11-21T12:51:11.463Z,22.27
2018-11-21T12:56:43.992Z,20.47
2018-11-21T13:05:13.126Z,21.03
2018-11-21T13:11:08.726Z,21.57
2018-11-21T13:16:41.165Z,19.13
2018-11-21T13:28:01.425Z,19.87
2018-11-21T13:33:34.061Z,21.53
2018-11-21T13:39:03.682Z,22.20
2018-11-21T13:47:47.099Z,22.27
2018-11-21T13:53:17.228Z,21.53
2018-11-21T13:58:40.779Z,21.73
2018-11-21T14:04:13.863Z,21.53
2018-11-21T14:09:41.052Z,21.30
2018-11-21T14:23:25.759Z,22.60
2018-11-21T14:26:05.805Z,22.73
2018-11-21T14:28:46.902Z,24.53
2018-11-21T14:36:56.735Z,25.53
2018-11-21T14:39:36.633Z,25.60
2018-11-21T14:42:20.649Z,25.47
2018-11-21T14:47:33.985Z,27.13
2018-11-21T14:50:25.826Z,26.00
2018-11-21T14:53:06.825Z,26.50
2018-11-21T14:55:48.324Z,25.93
2018-11-21T14:58:30.036Z,25.30
2018-11-21T15:03:59.964Z,26.90
2018-11-21T15:09:27.979Z,25.70
2018-11-21T15:14:57.535Z,24.53
2018-11-21T15:17:37.389Z,25.87
2018-11-21T15:20:18.719Z,25.80
2018-11-21T15:25:47.604Z,25.30
2018-11-21T15:28:27.938Z,25.60
2018-11-21T15:31:08.099Z,24.20
2018-11-21T15:36:33.603Z,24.40
2018-11-21T15:39:13.756Z,25.63
2018-11-21T15:41:53.746Z,25.63
2018-11-21T15:44:33.877Z,24.07
2018-11-21T15:47:14.492Z,24.33
2018-11-21T15:49:54.601Z,25.10
2018-11-21T15:52:34.736Z,25.17
2018-11-21T15:57:44.577Z,25.17
2018-11-21T16:00:33.054Z,26.80
2018-11-21T16:03:13.111Z,25.60
2018-11-21T16:05:52.888Z,26.40
2018-11-21T16:08:32.971Z,26.33
2018-11-21T16:11:17.278Z,25.90
2018-11-21T16:13:57.559Z,25.97
2018-11-21T16:16:38.046Z,26.80
2018-11-21T16:19:17.815Z,25.83
2018-11-21T16:21:57.889Z,26.03
2018-11-21T16:24:37.807Z,26.20
2018-11-21T16:27:17.706Z,26.33
2018-11-21T16:29:57.330Z,25.73
2018-11-21T16:32:48.883Z,25.53
2018-11-21T16:38:21.729Z,26.20
2018-11-21T16:43:50.716Z,24.77
2018-11-21T16:46:30.429Z,27.10
2018-11-21T16:49:02.779Z,46.93
2018-11-21T16:51:49.566Z,28.93
2018-11-21T16:54:30.452Z,26.50
2018-11-21T17:02:45.942Z,28.23
2018-11-21T17:05:32.041Z,27.23
2018-11-21T17:08:18.647Z,24.93
2018-11-21T17:10:58.905Z,24.83
2018-11-21T17:19:20.925Z,25.03
2018-11-21T17:24:54.204Z,24.77
2018-11-21T17:30:24.137Z,23.67
2018-11-21T17:35:49.365Z,24.53
2018-11-21T17:44:05.398Z,23.90
2018-11-21T17:49:37.332Z,24.33
2018-11-21T17:52:18.746Z,22.50
2018-11-21T17:57:45.757Z,23.87
2018-11-21T18:06:49.480Z,23.53
2018-11-21T18:09:33.882Z,24.77
2018-11-21T18:12:17.327Z,22.20
2018-11-21T18:17:46.908Z,23.37
2018-11-21T18:26:01.885Z,23.47
2018-11-21T18:28:42.296Z,23.50
2018-11-21T18:42:53.991Z,23.60
2018-11-21T18:53:54.755Z,22.93
2018-11-21T18:56:28.960Z,22.00
2018-11-21T18:59:08.923Z,22.70
2018-11-21T19:04:35.198Z,23.23
2018-11-21T19:07:15.636Z,23.93
2018-11-21T19:18:13.732Z,23.27
2018-11-21T19:23:46.389Z,26.27
2018-11-21T19:26:26.989Z,25.97
2018-11-21T19:29:11.172Z,24.00
2018-11-21T19:31:50.716Z,24.63
2018-11-21T19:34:33.501Z,24.70
2018-11-21T19:37:13.840Z,24.27
2018-11-21T19:39:54.931Z,25.33
2018-11-21T19:42:36.465Z,25.33
2018-11-21T19:45:17.402Z,25.03
2018-11-21T19:50:44.525Z,24.10
2018-11-21T19:56:13.677Z,24.80
2018-11-21T20:01:40.180Z,24.73
2018-11-21T20:07:08.658Z,25.07
2018-11-21T20:09:48.902Z,24.10
2018-11-21T20:12:29.653Z,24.07
2018-11-21T20:17:58.788Z,25.17
2018-11-21T20:20:39.088Z,25.00
2018-11-21T20:23:19.424Z,24.07
2018-11-21T20:31:32.894Z,23.73
2018-11-21T20:34:13.117Z,23.67
2018-11-21T20:39:38.662Z,25.40
2018-11-21T20:42:18.356Z,25.50
2018-11-21T20:44:59.467Z,23.90
2018-11-21T20:50:29.800Z,23.50
2018-11-21T20:53:11.234Z,23.60
2018-11-21T20:55:50.869Z,24.10
2018-11-21T21:01:19.455Z,23.73
2018-11-21T21:06:45.776Z,23.40
2018-11-21T21:12:15.665Z,24.10
2018-11-21T21:14:55.804Z,23.70
2018-11-21T21:17:37.145Z,24.37
2018-11-21T21:20:18.606Z,23.47
2018-11-21T21:23:01.998Z,22.40
2018-11-21T21:25:41.562Z,23.47
2018-11-21T21:28:21.159Z,23.37
2018-11-21T21:33:48.058Z,23.40
2018-11-21T21:42:18.101Z,23.67
2018-11-21T21:50:33.495Z,23.80
2018-11-21T21:56:03.657Z,22.77
2018-11-21T22:04:22.870Z,22.20
2018-11-21T22:09:58.882Z,23.57
2018-11-21T22:12:38.843Z,23.37
2018-11-21T22:15:19.846Z,23.00
2018-11-21T22:18:04.668Z,24.27
2018-11-21T22:20:46.134Z,23.83
2018-11-21T22:26:15.293Z,23.20
2018-11-21T22:28:55.244Z,22.90
2018-11-21T22:34:24.543Z,23.00
2018-11-21T22:39:45.858Z,24.00
2018-11-21T22:42:26.181Z,23.23
2018-11-21T22:45:10.312Z,22.47
2018-11-21T22:47:50.467Z,22.77
2018-11-21T22:50:30.999Z,22.50
2018-11-21T22:53:10.696Z,22.83
2018-11-21T23:01:25.416Z,21.77
2018-11-21T23:03:52.819Z,21.43
2018-11-21T23:06:40.260Z,21.77
2018-11-21T23:09:20.673Z,22.17
2018-11-21T23:12:01.107Z,22.13
2018-11-21T23:14:41.454Z,22.43
2018-11-21T23:17:21.295Z,22.40
2018-11-21T23:20:02.451Z,22.97
2018-11-21T23:22:43.959Z,21.30
2018-11-21T23:25:24.177Z,21.40
2018-11-21T23:28:04.198Z,22.60
2018-11-21T23:30:44.203Z,21.97
2018-11-21T23:33:23.692Z,22.47
2018-11-21T23:36:04.066Z,22.77
2018-11-21T23:38:31.440Z,21.77
2018-11-21T23:41:18.939Z,23.07
2018-11-21T23:44:05.773Z,22.33
2018-11-21T23:46:45.691Z,22.40
2018-11-21T23:52:11.791Z,23.47
2018-11-21T23:57:38.366Z,22.10
